Thursday, January 17, 2019, 6:42 AM EST
Back to Local

KBML, Berlin Municipal Airport

Location: Milan, NH, United States Lat: 44.583
Local Time: 6:42 AM EST (11:42 GMT) Lon: -71.183
Time Zone: US/Eastern Elev: 1158 ft

Show me the last for .
Show Decoded

2019-01-17 05:52 METAR KBML 171052Z AUTO VRB04KT 10SM CLR M18/M23 A3024 RMK AO2 SLP267 T11781228
                 =
2019-01-17 04:52 METAR KBML 170952Z AUTO 00000KT 10SM FEW024 M18/M23 A3021 RMK AO2 SLP255
                 T11831228 =
2019-01-17 03:52 METAR KBML 170852Z AUTO VRB04KT 10SM CLR M17/M22 A3020 RMK AO2 SLP251 T11671217
                 51029 =
2019-01-17 02:52 METAR KBML 170752Z AUTO VRB04KT 10SM CLR M16/M21 A3018 RMK AO2 SLP242 T11611211
                 =
2019-01-17 01:52 METAR KBML 170652Z AUTO VRB06KT 10SM CLR M16/M20 A3014 RMK AO2 SLP230 T11561200
                 =
2019-01-17 00:52 METAR KBML 170552Z AUTO VRB06KT 9SM CLR M14/M19 A3011 RMK AO2 SLP218 60000
                 T11441189 11033 21144 51022 =
2019-01-16 23:52 METAR KBML 170452Z AUTO 30008G15KT 10SM CLR M13/M19 A3010 RMK AO2 SLP215
                 T11331194 400061133 =
2019-01-16 22:52 METAR KBML 170352Z AUTO VRB06G15KT 10SM CLR M12/M19 A3009 RMK AO2 SLP209
                 T11221189 =
2019-01-16 22:17 METAR KBML 170317Z AUTO VRB03KT 10SM FEW019 M12/M17 A3006 RMK AO2 T11171167 =
2019-01-16 21:52 METAR KBML 170252Z AUTO 28007G15KT 250V320 7SM BKN021 BKN026 OVC032 M11/M16
                 A3004 RMK AO2 SLP194 60000 T11111161 53051 =
2019-01-16 20:52 METAR KBML 170152Z AUTO 28007G16KT 250V320 10SM CLR M09/M16 A2999 RMK AO2
                 SNE0059 SLP175 P0000 T10891161 =
2019-01-16 19:52 METAR KBML 170052Z AUTO VRB05G20KT 7SM -SN BKN030 OVC038 M06/M11 A2994 RMK AO2
                 SNE02B32 SLP157 P0000 T10561106 =
2019-01-16 19:40 METAR KBML 170040Z AUTO 29009G18KT 260V340 5SM -SN BKN029 OVC035 M05/M10 A2992
                 RMK AO2 SNE02B32 P0000 T10501100 =
2019-01-16 18:52 METAR KBML 162352Z AUTO 27010KT 8SM -SN FEW027 BKN036 OVC065 M03/M09 A2989 RMK
                 AO2 SNB04 PRESRR SLP139 P0000 60000 T10331089 10006 21033 53041 =
2019-01-16 17:52 METAR KBML 162252Z AUTO 00000KT 10SM SCT027 BKN034 OVC070 M02/M06 A2982 RMK AO2
                 SNE20 SLP117 P0000 T10221061 =
2019-01-16 17:26 METAR KBML 162226Z AUTO VRB04KT 9SM SCT020 BKN035 OVC043 M02/M06 A2981 RMK AO2
                 SNE20 P0000 T10171061 =
2019-01-16 17:01 METAR KBML 162201Z AUTO 30008G14KT 5SM -SN FEW018 BKN023 OVC047 M01/M05 A2979
                 RMK AO2 P0000 T10111050 =
2019-01-16 16:52 METAR KBML 162152Z AUTO 30007KT 260V330 7SM -SN SCT024 BKN033 OVC060 M01/M06
                 A2978 RMK AO2 SLP103 P0000 T10111056 =
2019-01-16 16:09 METAR KBML 162109Z AUTO VRB03KT 3SM -SN FEW021 SCT028 OVC035 M01/M04 A2976 RMK
                 AO2 P0000 T10111039 =
2019-01-16 16:07 METAR KBML 162107Z AUTO VRB04KT 1 3/4SM -SN SCT023 BKN030 OVC035 M01/M04 A2976
                 RMK AO2 P0000 T10111039 =
2019-01-16 15:58 METAR KBML 162058Z AUTO 26005KT 1 1/4SM -SN SCT017 BKN027 OVC034 M01/M04 A2976
                 RMK AO2 P0000 T10111039 =
2019-01-16 15:55 METAR KBML 162055Z AUTO 24005KT 2 1/2SM -SN SCT017 BKN027 OVC034 M01/M04 A2976
                 RMK AO2 P0000 T10111044 =
2019-01-16 15:51 METAR KBML 162051Z AUTO 25005KT 3SM -SN BR SCT017 SCT027 OVC034 M02/M04 A2976
                 RMK AO2 SNB19 SLP095 P0000 60000 T10171039 53011 =
2019-01-16 15:50 METAR KBML 162050Z AUTO VRB04KT 2 1/2SM -SN BR SCT017 OVC034 M02/M04 A2976 RMK
                 AO2 SNB19 P0000 =
2019-01-16 15:42 METAR KBML 162042Z AUTO VRB03KT 1 1/2SM -SN SCT016 BKN027 OVC036 M01/M04 A2976
                 RMK AO2 SNB19 P0000 T10111039 =
2019-01-16 15:25 METAR KBML 162025Z AUTO 24005KT 3/4SM -SN SCT018 BKN028 OVC038 M01/M04 A2976 RMK
                 AO2 SNB19 P0000 T10111044 =
2019-01-16 15:23 METAR KBML 162023Z AUTO 25006KT 1 1/4SM -SN SCT025 BKN030 OVC038 M01/M05 A2975
                 RMK AO2 SNB19 P0000 T10061050 =
2019-01-16 15:21 METAR KBML 162021Z AUTO 23008KT 190V270 2SM -SN BKN028 OVC038 M01/M05 A2975 RMK
                 AO2 SNB19 P0000 T10061050 =
2019-01-16 14:52 METAR KBML 161952Z AUTO 23008KT 10SM BKN030 BKN038 OVC075 M01/M06 A2974 RMK AO2
                 SLP088 T10061056 =
2019-01-16 13:52 METAR KBML 161852Z AUTO VRB05KT 10SM BKN030 OVC037 M01/M06 A2973 RMK AO2 SLP086
                 T10061061 =
2019-01-16 13:43 METAR KBML 161843Z AUTO VRB06KT 10SM OVC032 M01/M06 A2973 RMK AO2 T10061061 =
2019-01-16 12:52 METAR KBML 161752Z AUTO 25007KT 10SM BKN028 OVC034 01/M06 A2973 RMK AO2 SLP083
                 60000 T00061061 10006 21050 56021 =
2019-01-16 12:24 METAR KBML 161724Z AUTO VRB03KT 10SM OVC028 M01/M06 A2973 RMK AO2 T10061061 =
2019-01-16 11:52 METAR KBML 161652Z AUTO VRB06KT 10SM OVC030 M01/M07 A2974 RMK AO2 SLP088
                 T10061067 =
2019-01-16 11:27 METAR KBML 161627Z AUTO 23005KT 10SM OVC030 M01/M07 A2975 RMK AO2 T10111067 =
2019-01-16 10:52 METAR KBML 161552Z AUTO VRB05KT 10SM OVC025 M02/M07 A2977 RMK AO2 SLP097
                 T10171067 =
2019-01-16 09:52 METAR KBML 161452Z AUTO 21011G20KT 8SM OVC025 M02/M06 A2979 RMK AO2 SNB25E43
                 SLP105 P0000 60000 T10171061 53000 =
2019-01-16 08:52 METAR KBML 161352Z AUTO 11004KT 10SM OVC024 M02/M06 A2978 RMK AO2 SLP102
                 T10221061 =
2019-01-16 07:52 METAR KBML 161252Z AUTO 00000KT 10SM OVC025 M04/M07 A2979 RMK AO2 SLP105
                 T10441067 =
2019-01-16 06:52 METAR KBML 161152Z AUTO 15003KT 10SM OVC028 M04/M07 A2979 RMK AO2 SLP106
                 T10441067 11039 21061 58018 =

Support USWX by starting your Amazon purchase here.